Time;durP1;ratioP1;P1;durP2;ratioP2;P2;SDS_P1;SDS_P2;PMS_P1;PMS_P2;Temp;Humidity;BMP_temperature;BMP_pressure;BME280_temperature;BME280_humidity;BME280_pressure;Samples;Min_cycle;Max_cycle;Signal;HPM_P1;HPM_P2
2024/02/01 00:00:20;;;;;;;0.73;0.73;;;;;;;0.50;100.00;101868.22;4889221;29;20059;-74
2024/02/01 00:02:46;;;;;;;2.88;2.40;;;;;;;0.48;100.00;101880.13;4884118;29;20040;-72
2024/02/01 00:05:12;;;;;;;0.40;0.40;;;;;;;0.87;100.00;101963.53;4886138;29;20108;-72
2024/02/01 00:07:37;;;;;;;0.93;0.93;;;;;;;0.99;100.00;101974.69;4887245;29;20132;-72
2024/02/01 00:10:03;;;;;;;0.40;0.40;;;;;;;1.01;100.00;101960.19;4887537;29;20049;-73
2024/02/01 00:12:28;;;;;;;1.85;1.75;;;;;;;0.88;100.00;101949.84;4888144;29;20513;-72
2024/02/01 00:14:54;;;;;;;0.73;0.73;;;;;;;0.39;100.00;101864.94;4883046;29;20468;-73
2024/02/01 00:17:19;;;;;;;0.30;0.30;;;;;;;0.32;100.00;101875.66;4887445;29;20048;-72
2024/02/01 00:19:45;;;;;;;1.02;1.02;;;;;;;0.94;100.00;101958.91;4885617;29;20112;-72
2024/02/01 00:22:10;;;;;;;2.40;2.30;;;;;;;0.52;100.00;101849.44;4891121;29;20025;-73
2024/02/01 00:24:36;;;;;;;1.75;1.65;;;;;;;1.07;100.00;101950.22;4884781;29;20049;-72
2024/02/01 00:27:01;;;;;;;2.75;2.60;;;;;;;1.12;100.00;101947.91;4889598;29;20052;-72
2024/02/01 00:29:27;;;;;;;0.55;0.55;;;;;;;1.03;100.00;101943.97;4882791;29;20501;-72
2024/02/01 00:31:52;;;;;;;3.35;3.15;;;;;;;0.56;100.00;101869.50;4880979;29;20148;-73
2024/02/01 00:34:18;;;;;;;0.40;0.40;;;;;;;0.95;100.00;101926.19;4876684;29;20068;-73
2024/02/01 00:36:43;;;;;;;2.35;2.25;;;;;;;1.02;100.00;101946.44;4886636;29;20515;-73
2024/02/01 00:39:09;;;;;;;1.58;1.48;;;;;;;0.91;100.00;101924.19;4883665;29;20053;-73
2024/02/01 00:41:34;;;;;;;1.98;1.85;;;;;;;0.92;100.00;101941.50;4885868;29;20072;-72
2024/02/01 00:44:00;;;;;;;0.80;0.80;;;;;;;0.94;100.00;101952.84;4887935;29;20057;-73
2024/02/01 00:46:25;;;;;;;7.78;1.55;;;;;;;0.90;100.00;101940.50;4885566;29;20029;-73
2024/02/01 00:48:51;;;;;;;1.20;1.20;;;;;;;0.36;100.00;101852.72;4889620;29;20029;-73
2024/02/01 00:51:16;;;;;;;0.30;0.30;;;;;;;0.86;100.00;101933.34;4889669;29;20060;-74
2024/02/01 00:53:42;;;;;;;1.15;1.15;;;;;;;0.25;100.00;101845.09;4888985;29;20100;-74
2024/02/01 00:56:07;;;;;;;2.05;1.95;;;;;;;0.62;100.00;101915.50;4888367;29;20903;-74
2024/02/01 00:58:33;;;;;;;1.10;0.68;;;;;;;0.49;100.00;101889.66;4888040;29;20614;-73
2024/02/01 01:01:00;;;;;;;0.50;0.50;;;;;;;0.42;100.00;101872.88;4887900;29;20584;-73
2024/02/01 01:03:25;;;;;;;1.85;1.75;;;;;;;0.86;100.00;101928.19;4887368;29;20056;-72
2024/02/01 01:05:51;;;;;;;1.95;1.85;;;;;;;0.84;100.00;101922.91;4905763;29;20136;-73
2024/02/01 01:08:17;;;;;;;15.23;14.05;;;;;;;0.74;100.00;101910.22;4906358;29;20044;-73
2024/02/01 01:10:42;;;;;;;0.70;0.70;;;;;;;0.32;100.00;101852.44;4888936;29;20085;-73
2024/02/01 01:13:08;;;;;;;3.05;2.17;;;;;;;0.37;100.00;101843.28;4905897;29;20032;-72
2024/02/01 01:15:33;;;;;;;1.42;1.38;;;;;;;0.39;100.00;101872.69;4897246;29;20088;-74
2024/02/01 01:17:59;;;;;;;1.52;1.42;;;;;;;-0.52;100.00;101691.38;4907961;29;20157;-72
2024/02/01 01:20:25;;;;;;;0.30;0.30;;;;;;;0.19;100.00;101836.16;4907230;29;20052;-75
2024/02/01 01:22:50;;;;;;;27.75;25.35;;;;;;;0.03;100.00;101806.69;4905761;29;20501;-73
2024/02/01 01:25:16;;;;;;;0.60;0.60;;;;;;;0.14;100.00;101855.63;4905999;29;20513;-74
2024/02/01 01:27:42;;;;;;;1.40;1.30;;;;;;;0.40;100.00;101911.53;4907841;29;20040;-73
2024/02/01 01:30:08;;;;;;;6.95;3.55;;;;;;;0.09;100.00;101836.34;4903666;29;20096;-72
2024/02/01 01:32:33;;;;;;;1.05;1.02;;;;;;;0.08;100.00;101811.34;4904300;29;20852;-72
2024/02/01 01:35:00;;;;;;;0.80;0.80;;;;;;;-0.01;100.00;101818.47;4903386;29;20051;-73
2024/02/01 01:37:26;;;;;;;1.35;1.25;;;;;;;-0.06;100.00;101813.00;4906878;29;20540;-73
2024/02/01 01:39:52;;;;;;;1.27;1.27;;;;;;;0.28;100.00;101899.47;4905097;29;20693;-73
2024/02/01 01:42:18;;;;;;;7.05;4.35;;;;;;;-0.18;100.00;101803.59;4903083;29;20052;-72
2024/02/01 01:44:44;;;;;;;1.58;1.48;;;;;;;0.46;100.00;101889.47;4904126;29;20056;-73
2024/02/01 01:47:10;;;;;;;1.63;1.40;;;;;;;0.25;100.00;101878.63;4907049;29;20083;-74
2024/02/01 01:49:35;;;;;;;2.05;1.95;;;;;;;-0.29;100.00;101784.81;4904329;29;20504;-74
2024/02/01 01:52:02;;;;;;;0.95;0.95;;;;;;;0.30;100.00;101875.56;4911688;29;20036;-73
2024/02/01 01:54:31;;;;;;;0.30;0.30;;;;;;;0.37;100.00;101862.25;4904081;29;20052;-72
2024/02/01 01:56:58;;;;;;;1.40;1.30;;;;;;;0.22;100.00;101852.63;4903589;29;20044;-72
2024/02/01 01:59:24;;;;;;;9.15;8.23;;;;;;;0.30;100.00;101874.66;4909907;29;20083;-73
2024/02/01 02:01:51;;;;;;;1.23;1.23;;;;;;;-0.11;100.00;101798.03;4904640;29;20052;-75
2024/02/01 02:04:17;;;;;;;1.67;1.58;;;;;;;0.22;100.00;101870.72;4909802;29;20047;-74
2024/02/01 02:06:43;;;;;;;4.57;4.38;;;;;;;0.05;100.00;101875.66;4906279;29;20040;-74
2024/02/01 02:09:12;;;;;;;10.65;9.82;;;;;;;0.03;100.00;101859.19;4906609;29;20605;-74
2024/02/01 02:11:44;;;;;;;0.55;0.55;;;;;;;-0.30;100.00;101801.09;4903543;29;20056;-74
2024/02/01 02:14:16;;;;;;;1.80;1.70;;;;;;;-0.49;100.00;101761.19;4907327;29;20061;-73
2024/02/01 02:16:43;;;;;;;0.50;0.50;;;;;;;0.18;100.00;101859.28;4903487;29;20404;-73
2024/02/01 02:19:09;;;;;;;1.00;1.00;;;;;;;-0.36;100.00;101777.47;4907346;29;20043;-73
2024/02/01 02:21:48;;;;;;;0.40;0.40;;;;;;;-0.26;100.00;101785.00;4908575;29;20090;-73
2024/02/01 02:24:15;;;;;;;1.80;1.70;;;;;;;-0.10;100.00;101854.88;4902023;29;20063;-74
2024/02/01 02:26:41;;;;;;;54.25;18.73;;;;;;;0.03;100.00;101851.44;4904806;29;20091;-73
2024/02/01 02:29:07;;;;;;;1.98;1.75;;;;;;;0.10;100.00;101843.31;4900487;29;20131;-74
2024/02/01 02:31:32;;;;;;;0.63;0.63;;;;;;;-0.33;100.00;101788.91;4908291;29;20083;-73
2024/02/01 02:33:59;;;;;;;3.63;3.42;;;;;;;-0.64;100.00;101753.31;4911362;29;20428;-73
2024/02/01 02:36:25;;;;;;;10.20;9.45;;;;;;;-0.04;100.00;101831.19;4908871;29;20492;-74
2024/02/01 02:38:50;;;;;;;1.50;1.40;;;;;;;-0.32;100.00;101789.78;4909531;29;20790;-74
2024/02/01 02:41:16;;;;;;;6.25;5.95;;;;;;;-0.40;100.00;101760.88;4906142;29;20056;-74
2024/02/01 02:43:43;;;;;;;1.95;1.85;;;;;;;0.19;100.00;101840.44;4905777;29;20114;-75
2024/02/01 02:46:08;;;;;;;0.85;0.85;;;;;;;-0.02;100.00;101842.50;4903104;29;20097;-73
2024/02/01 02:48:34;;;;;;;0.30;0.30;;;;;;;0.01;100.00;101839.22;4909784;29;20044;-72
2024/02/01 02:50:59;;;;;;;0.73;0.73;;;;;;;0.01;100.00;101834.06;4902053;29;20060;-74
2024/02/01 02:53:25;;;;;;;0.40;0.40;;;;;;;-0.43;100.00;101747.81;4902387;29;20058;-75
2024/02/01 02:55:50;;;;;;;3.10;1.05;;;;;;;0.06;100.00;101838.72;4902899;29;20060;-74
2024/02/01 02:58:16;;;;;;;0.77;0.77;;;;;;;-0.38;100.00;101756.72;4903169;29;20476;-74
2024/02/01 03:00:41;;;;;;;6.10;4.57;;;;;;;-0.07;100.00;101818.97;4906593;29;20377;-73
2024/02/01 03:03:07;;;;;;;1.38;1.30;;;;;;;0.05;100.00;101826.63;4908008;29;20056;-74
2024/02/01 03:05:33;;;;;;;0.40;0.40;;;;;;;-0.05;100.00;101819.06;4904945;29;20052;-73
2024/02/01 03:08:04;;;;;;;0.50;0.50;;;;;;;0.06;100.00;101830.09;4908171;29;20056;-73
2024/02/01 03:10:30;;;;;;;0.40;0.40;;;;;;;0.10;100.00;101814.91;4902915;29;20063;-73
2024/02/01 03:12:56;;;;;;;0.82;0.82;;;;;;;-0.22;100.00;101761.22;4907768;29;20548;-72
2024/02/01 03:15:22;;;;;;;3.05;2.85;;;;;;;-0.47;100.00;101735.50;4907534;29;20159;-73
2024/02/01 03:17:49;;;;;;;0.57;0.57;;;;;;;-0.55;100.00;101752.16;4907982;29;20069;-72
2024/02/01 03:20:23;;;;;;;0.55;0.55;;;;;;;-0.23;100.00;101822.22;4892644;29;20116;-72
2024/02/01 03:22:54;;;;;;;6.95;6.53;;;;;;;-0.09;100.00;101817.09;4892174;29;20669;-73
2024/02/01 03:25:29;;;;;;;1.05;1.05;;;;;;;-0.15;100.00;101806.38;4908163;29;20040;-73
2024/02/01 03:28:00;;;;;;;8.40;1.95;;;;;;;-0.65;100.00;101723.19;4902731;29;20031;-73
2024/02/01 03:30:29;;;;;;;3.95;3.70;;;;;;;-0.08;100.00;101812.00;4891116;29;20044;-73
2024/02/01 03:32:55;;;;;;;1.08;1.08;;;;;;;-0.29;100.00;101777.97;4907022;29;20055;-73
2024/02/01 03:35:22;;;;;;;1.20;1.10;;;;;;;-0.06;100.00;101815.59;4901027;29;20040;-74
2024/02/01 03:37:47;;;;;;;1.65;1.55;;;;;;;-0.50;100.00;101751.66;4902979;29;20071;-73
2024/02/01 03:40:14;;;;;;;1.35;1.33;;;;;;;-0.09;100.00;101812.81;4898808;29;20039;-75
2024/02/01 03:42:40;;;;;;;0.40;0.40;;;;;;;-0.10;100.00;101805.84;4904528;29;20040;-72
2024/02/01 03:45:06;;;;;;;5.50;5.25;;;;;;;-0.45;100.00;101763.16;4902215;29;20127;-72
2024/02/01 03:47:32;;;;;;;4.03;3.83;;;;;;;-0.29;100.00;101780.53;4901231;29;20132;-72
2024/02/01 03:49:57;;;;;;;3.95;3.65;;;;;;;-0.15;100.00;101790.88;4908259;29;20079;-73
2024/02/01 03:52:23;;;;;;;2.65;2.47;;;;;;;-0.03;100.00;101786.50;4887629;29;20034;-74
2024/02/01 03:54:48;;;;;;;1.60;1.30;;;;;;;-0.26;100.00;101760.13;4903894;29;20099;-74
2024/02/01 03:57:15;;;;;;;3.97;3.80;;;;;;;-0.24;100.00;101771.41;4909730;29;20048;-74
2024/02/01 03:59:45;;;;;;;13.20;12.45;;;;;;;-0.22;100.00;101789.59;4921770;29;20051;-74
2024/02/01 04:02:14;;;;;;;3.47;3.15;;;;;;;-0.70;100.00;101695.34;4908881;29;20068;-73
2024/02/01 04:04:47;;;;;;;7.00;6.53;;;;;;;-0.23;100.00;101791.28;4904363;29;20060;-73
2024/02/01 04:07:18;;;;;;;0.70;0.70;;;;;;;-0.14;100.00;101792.66;4903490;29;20135;-74
2024/02/01 04:09:47;;;;;;;5.10;4.72;;;;;;;-0.30;100.00;101771.03;4907035;29;20349;-73
2024/02/01 04:12:13;;;;;;;2.67;0.60;;;;;;;-0.29;100.00;101772.81;4907307;29;20056;-75
2024/02/01 04:14:39;;;;;;;2.72;2.60;;;;;;;-0.25;100.00;101773.91;4908705;29;20055;-74
2024/02/01 04:17:05;;;;;;;1.75;1.10;;;;;;;-0.29;100.00;101772.81;4903787;29;20059;-73
2024/02/01 04:19:31;;;;;;;3.58;2.92;;;;;;;-0.33;100.00;101760.53;4908941;29;20253;-73
2024/02/01 04:21:56;;;;;;;0.30;0.30;;;;;;;-0.29;100.00;101767.66;4908398;29;20207;-73
2024/02/01 04:24:22;;;;;;;5.25;4.97;;;;;;;-0.80;100.00;101698.09;4904301;29;20052;-72
2024/02/01 04:26:48;;;;;;;3.55;2.45;;;;;;;-0.26;100.00;101783.34;4904158;29;20100;-74
2024/02/01 04:29:14;;;;;;;0.55;0.55;;;;;;;-0.18;100.00;101785.53;4908258;29;20048;-73
2024/02/01 04:31:40;;;;;;;10.80;10.15;;;;;;;-0.25;100.00;101786.81;4905241;29;20048;-73
2024/02/01 04:34:05;;;;;;;0.40;0.40;;;;;;;-0.57;100.00;101710.81;4908013;29;20515;-74
2024/02/01 04:36:31;;;;;;;2.70;2.63;;;;;;;-0.80;100.00;101686.09;4909024;29;20080;-73
2024/02/01 04:38:57;;;;;;;6.22;5.93;;;;;;;-0.62;100.00;101713.88;4908036;29;20040;-73
2024/02/01 04:41:22;;;;;;;0.68;0.68;;;;;;;-1.19;100.00;101648.28;4904990;29;20083;-73
2024/02/01 04:43:48;;;;;;;3.13;2.97;;;;;;;-0.78;100.00;101679.34;4908540;29;20118;-73
2024/02/01 04:46:13;;;;;;;4.40;4.05;;;;;;;-0.94;100.00;101692.91;4908895;29;20488;-72
2024/02/01 04:48:39;;;;;;;2.30;2.10;;;;;;;-0.75;100.00;101722.47;4908659;29;20035;-73
2024/02/01 04:51:05;;;;;;;4.72;4.53;;;;;;;-0.46;100.00;101773.41;4906618;29;20639;-72
2024/02/01 04:53:30;;;;;;;0.75;0.75;;;;;;;-1.07;100.00;101670.59;4910539;29;20454;-73
2024/02/01 04:55:56;;;;;;;3.97;3.80;;;;;;;-0.44;100.00;101785.59;4910822;29;20048;-73
2024/02/01 04:58:22;;;;;;;3.45;3.30;;;;;;;-0.89;100.00;101703.50;4910772;29;20123;-73
2024/02/01 05:00:49;;;;;;;0.40;0.40;;;;;;;-0.41;100.00;101778.88;4910881;29;20111;-73
2024/02/01 05:03:15;;;;;;;1.80;1.70;;;;;;;-0.35;100.00;101774.09;4909988;29;20500;-73
2024/02/01 05:05:47;;;;;;;4.50;4.20;;;;;;;-0.52;100.00;101730.03;4893453;29;20048;-72
2024/02/01 05:08:15;;;;;;;4.05;3.78;;;;;;;-0.30;100.00;101776.19;4907998;29;20135;-73
2024/02/01 05:10:44;;;;;;;1.48;1.27;;;;;;;-0.25;100.00;101771.34;4909890;29;20056;-72
2024/02/01 05:13:13;;;;;;;1.00;1.00;;;;;;;-0.49;100.00;101756.03;4912119;29;20044;-72
2024/02/01 05:15:47;;;;;;;6.72;6.32;;;;;;;-0.82;100.00;101677.41;4908951;29;20217;-73
2024/02/01 05:18:13;;;;;;;0.60;0.60;;;;;;;-0.35;100.00;101762.13;4911899;29;20059;-74
2024/02/01 05:20:39;;;;;;;0.85;0.85;;;;;;;-0.33;100.00;101765.69;4890366;29;20508;-73
2024/02/01 05:23:06;;;;;;;1.65;1.55;;;;;;;-0.31;100.00;101770.94;4908065;29;20052;-73
2024/02/01 05:25:32;;;;;;;0.85;0.85;;;;;;;-0.85;100.00;101687.47;4912185;29;20591;-74
2024/02/01 05:27:58;;;;;;;0.30;0.30;;;;;;;-0.62;100.00;101732.81;4908089;29;20036;-73
2024/02/01 05:30:23;;;;;;;7.22;4.40;;;;;;;-0.95;100.00;101690.25;4907796;29;20044;-74
2024/02/01 05:32:53;;;;;;;1.83;1.73;;;;;;;-0.51;100.00;101767.06;4908973;29;20195;-75
2024/02/01 05:35:26;;;;;;;0.40;0.40;;;;;;;-0.60;100.00;101758.69;4904716;29;20063;-74
2024/02/01 05:37:52;;;;;;;3.80;3.60;;;;;;;-0.57;100.00;101780.41;4906274;29;20048;-72
2024/02/01 05:40:18;;;;;;;0.60;0.60;;;;;;;-0.97;100.00;101687.53;4921790;29;20471;-74
2024/02/01 05:42:44;;;;;;;0.40;0.40;;;;;;;-0.76;100.00;101725.84;4904942;29;20032;-74
2024/02/01 05:45:10;;;;;;;0.52;0.52;;;;;;;-1.11;100.00;101690.88;4891726;29;20084;-75
2024/02/01 05:47:36;;;;;;;1.42;1.35;;;;;;;-0.62;100.00;101763.75;4902667;29;20192;-73
2024/02/01 05:50:01;;;;;;;1.23;1.23;;;;;;;-0.47;100.00;101763.84;4908298;29;20179;-75
2024/02/01 05:52:27;;;;;;;5.03;4.72;;;;;;;-0.59;100.00;101761.34;4904716;29;20104;-73
2024/02/01 05:54:56;;;;;;;7.47;7.07;;;;;;;-0.32;100.00;101767.47;4905114;29;20084;-74
2024/02/01 05:57:21;;;;;;;2.03;1.92;;;;;;;-0.77;100.00;101681.16;4901620;29;20048;-76
2024/02/01 05:59:47;;;;;;;8.45;6.40;;;;;;;-0.86;100.00;101670.25;4890724;29;20488;-76
2024/02/01 06:02:12;;;;;;;0.95;0.57;;;;;;;-1.12;100.00;101679.69;4905770;29;20047;-74
2024/02/01 06:04:38;;;;;;;0.50;0.50;;;;;;;-0.79;100.00;101703.34;4909118;29;20099;-73
2024/02/01 06:07:07;;;;;;;1.40;1.30;;;;;;;-0.46;100.00;101751.09;4908482;29;20032;-76
2024/02/01 06:09:32;;;;;;;1.65;1.55;;;;;;;-0.46;100.00;101779.44;4911143;29;20147;-75
2024/02/01 06:11:58;;;;;;;12.95;12.20;;;;;;;-0.85;100.00;101683.22;4905796;29;20135;-73
2024/02/01 06:14:23;;;;;;;2.72;2.60;;;;;;;-0.34;100.00;101768.16;4903506;29;20062;-74
2024/02/01 06:16:49;;;;;;;7.63;6.88;;;;;;;-0.86;100.00;101681.44;4908103;29;20092;-73
2024/02/01 06:19:14;;;;;;;3.25;3.05;;;;;;;-0.31;100.00;101760.59;4908977;29;20088;-74
2024/02/01 06:21:41;;;;;;;3.42;3.22;;;;;;;-0.64;100.00;101681.16;4909061;29;20605;-74
2024/02/01 06:24:10;;;;;;;1.25;1.15;;;;;;;-0.43;100.00;101702.28;4909036;29;20167;-73
2024/02/01 06:26:36;;;;;;;6.72;6.38;;;;;;;-0.17;100.00;101752.09;4892641;29;20051;-74
2024/02/01 06:29:07;;;;;;;0.88;0.88;;;;;;;-0.10;100.00;101756.84;4910631;29;20369;-74
2024/02/01 06:31:37;;;;;;;1.35;1.25;;;;;;;0.02;100.00;101730.06;4911397;29;20052;-75
2024/02/01 06:34:08;;;;;;;0.45;0.45;;;;;;;-0.36;100.00;101646.84;4909249;29;20159;-74
2024/02/01 06:36:39;;;;;;;1.02;1.02;;;;;;;0.23;100.00;101741.72;4903682;29;20052;-74
2024/02/01 06:39:37;;;;;;;2.78;2.67;;;;;;;-0.15;100.00;101721.25;4911198;29;20051;-74
2024/02/01 06:42:13;;;;;;;1.10;1.10;;;;;;;-0.56;100.00;101630.13;4909760;29;20136;-74
2024/02/01 06:44:46;;;;;;;4.88;4.65;;;;;;;-0.09;100.00;101724.22;4895309;29;20032;-74
2024/02/01 06:47:12;;;;;;;9.65;9.18;;;;;;;-0.44;100.00;101630.91;4906818;29;20052;-72
2024/02/01 06:52:35;;;;;;;9.95;8.98;;;;;;;-0.29;100.00;101633.56;4906736;29;20100;-75
2024/02/01 07:03:02;;;;;;;0.80;0.80;;;;;;;-0.40;100.00;101582.97;4902836;29;20071;-75
2024/02/01 07:08:26;;;;;;;14.80;10.25;;;;;;;0.04;100.00;101613.25;4908802;29;20056;-74
2024/02/01 07:10:58;;;;;;;0.30;0.30;;;;;;;0.25;100.00;101695.38;4905595;29;20044;-74
2024/02/01 07:13:45;;;;;;;22.73;20.50;;;;;;;0.22;100.00;101692.63;4909912;29;20044;-73
2024/02/01 07:16:21;;;;;;;0.60;0.60;;;;;;;0.31;100.00;101703.50;4904391;29;20144;-74
2024/02/01 07:18:57;;;;;;;1.52;1.45;;;;;;;0.51;100.00;101696.97;4908451;29;20055;-75
2024/02/01 07:21:31;;;;;;;6.63;6.15;;;;;;;0.35;100.00;101659.91;4903911;29;20046;-75
2024/02/01 07:24:17;;;;;;;7.63;1.15;;;;;;;0.58;100.00;101675.91;4908598;29;20060;-74
2024/02/01 07:27:04;;;;;;;3.53;3.33;;;;;;;0.16;100.00;101597.63;4904065;29;20159;-73
2024/02/01 07:59:38;;;;;;;1.52;1.42;;;;;;;1.95;100.00;101650.19;4884761;29;20112;-74
2024/02/01 08:02:23;;;;;;;2.78;2.63;;;;;;;1.65;100.00;101583.88;4887525;29;20117;-74
2024/02/01 08:07:48;;;;;;;0.88;0.85;;;;;;;1.84;100.00;101593.53;4887969;29;20071;-74
2024/02/01 08:10:18;;;;;;;6.32;5.93;;;;;;;2.22;100.00;101643.88;4890062;29;20032;-74
2024/02/01 08:12:45;;;;;;;10.25;9.18;;;;;;;2.27;100.00;101626.00;4889185;29;20056;-73
2024/02/01 08:15:18;;;;;;;0.77;0.77;;;;;;;2.21;100.00;101641.22;4889846;29;20104;-75
2024/02/01 08:17:49;;;;;;;1.67;1.58;;;;;;;2.44;100.00;101643.34;4890310;29;20569;-74
2024/02/01 08:20:15;;;;;;;6.40;6.03;;;;;;;1.84;100.00;101562.47;4886695;29;20074;-74
2024/02/01 08:22:44;;;;;;;0.75;0.75;;;;;;;1.81;100.00;101553.69;4888792;29;20049;-74
2024/02/01 08:25:11;;;;;;;0.88;0.88;;;;;;;2.30;100.00;101637.44;4887226;29;20489;-74
2024/02/01 08:27:38;;;;;;;1.48;1.45;;;;;;;1.95;100.00;101549.25;4893831;29;20056;-74
2024/02/01 08:30:12;;;;;;;4.63;4.43;;;;;;;2.47;100.00;101640.03;4889278;29;20068;-74
2024/02/01 08:32:39;;;;;;;12.02;11.05;;;;;;;2.76;100.00;101641.50;4893116;29;20508;-73
2024/02/01 08:35:10;;;;;;;16.08;13.20;;;;;;;2.44;100.00;101601.00;4892773;29;20056;-73
2024/02/01 08:37:38;;;;;;;10.20;9.57;;;;;;;2.43;100.00;101604.41;4892914;29;20044;-74
2024/02/01 08:40:16;;;;;;;4.45;4.22;;;;;;;2.78;100.00;101637.31;4888012;29;20041;-73
2024/02/01 08:42:45;;;;;;;6.78;6.32;;;;;;;2.47;100.00;101570.06;4891626;29;20099;-73
2024/02/01 08:45:12;;;;;;;1.10;1.10;;;;;;;2.29;100.00;101552.78;4893579;29;20063;-73
2024/02/01 08:47:38;;;;;;;2.15;2.05;;;;;;;2.89;100.00;101614.53;4904332;29;20108;-74
2024/02/01 08:50:06;;;;;;;3.72;3.53;;;;;;;2.26;100.00;101467.16;4906659;29;20072;-73
2024/02/01 08:52:33;;;;;;;4.70;4.30;;;;;;;3.14;100.00;101620.13;4891490;29;20051;-73
2024/02/01 08:55:00;;;;;;;26.40;23.73;;;;;;;3.08;100.00;101631.91;4882831;29;20065;-73
2024/02/01 08:57:25;;;;;;;0.35;0.35;;;;;;;3.21;100.00;101620.41;4893983;29;20076;-74
2024/02/01 08:59:51;;;;;;;5.05;4.40;;;;;;;3.38;100.00;101616.97;4892846;29;20079;-73
2024/02/01 09:02:18;;;;;;;4.63;4.43;;;;;;;3.24;100.00;101603.31;4893836;29;20055;-74
2024/02/01 09:04:46;;;;;;;1.00;0.60;;;;;;;3.26;100.00;101580.06;4888406;29;20127;-75
2024/02/01 09:07:14;;;;;;;1.75;1.67;;;;;;;2.99;100.00;101515.66;4891828;29;20033;-73
2024/02/01 09:09:39;;;;;;;0.30;0.30;;;;;;;3.40;100.00;101573.84;4889863;29;20043;-74
2024/02/01 09:12:05;;;;;;;34.90;31.30;;;;;;;3.63;100.00;101585.31;4890798;29;20053;-74
2024/02/01 09:14:34;;;;;;;0.85;0.85;;;;;;;3.20;100.00;101515.81;4893258;29;20131;-74
2024/02/01 09:16:59;;;;;;;1.88;1.77;;;;;;;3.06;100.00;101488.31;4893138;29;20049;-74
2024/02/01 09:19:25;;;;;;;1.92;1.83;;;;;;;3.88;100.00;101584.72;4892792;29;20041;-73
2024/02/01 09:21:51;;;;;;;4.30;4.00;;;;;;;3.87;100.00;101569.97;4892672;29;20048;-75
2024/02/01 09:24:20;;;;;;;0.82;0.82;;;;;;;3.60;100.00;101554.00;4890964;29;20044;-74
2024/02/01 09:26:46;;;;;;;4.53;4.28;;;;;;;3.82;100.00;101571.47;4893227;29;20049;-74
2024/02/01 09:29:11;;;;;;;1.13;1.02;;;;;;;4.03;100.00;101563.78;4891855;29;20119;-73
2024/02/01 09:31:38;;;;;;;3.60;3.40;;;;;;;3.50;100.00;101482.63;4893389;29;20139;-74
2024/02/01 09:34:05;;;;;;;1.35;1.13;;;;;;;4.11;100.00;101562.38;4892898;29;20056;-73
2024/02/01 09:36:31;;;;;;;3.08;2.95;;;;;;;4.29;100.00;101561.44;4889141;29;20139;-74
2024/02/01 09:38:56;;;;;;;2.30;2.20;;;;;;;3.90;100.00;101494.81;4891196;29;20573;-73
2024/02/01 09:41:25;;;;;;;1.25;1.25;;;;;;;3.97;100.00;101489.06;4871566;29;20498;-74
2024/02/01 09:43:52;;;;;;;3.10;2.20;;;;;;;4.19;100.00;101535.06;4892633;29;20093;-73
2024/02/01 09:46:18;;;;;;;1.15;1.05;;;;;;;4.33;100.00;101547.75;4892846;29;20037;-74
2024/02/01 09:48:45;;;;;;;1.23;1.15;;;;;;;4.37;100.00;101547.94;4893008;29;20071;-77
2024/02/01 09:51:17;;;;;;;5.32;4.88;;;;;;;3.98;100.00;101453.59;4890985;29;20120;-73
2024/02/01 09:53:45;;;;;;;3.63;3.35;;;;;;;4.34;100.00;101524.44;4886982;29;20052;-73
2024/02/01 09:56:12;;;;;;;1.35;1.33;;;;;;;4.56;100.00;101525.34;4891194;29;20053;-74
2024/02/01 09:58:39;;;;;;;0.75;0.75;;;;;;;4.50;100.00;101527.72;4882383;29;20113;-73
2024/02/01 10:01:05;;;;;;;2.72;2.58;;;;;;;4.53;100.00;101518.31;4872843;29;20040;-74
2024/02/01 10:03:30;;;;;;;2.10;2.00;;;;;;;4.59;100.00;101508.19;4885748;29;20063;-74
2024/02/01 10:05:56;;;;;;;0.30;0.30;;;;;;;4.29;100.00;101405.56;4875629;29;20053;-73
2024/02/01 10:08:25;;;;;;;5.57;1.85;;;;;;;4.90;100.00;101493.84;4891913;29;20060;-73
2024/02/01 10:10:51;;;;;;;6.38;6.07;;;;;;;4.62;100.00;101434.66;4891982;29;20044;-74
2024/02/01 10:13:18;;;;;;;0.63;0.30;;;;;;;4.56;100.00;101414.47;4890165;29;20043;-74
2024/02/01 10:15:48;;;;;;;1.45;1.42;;;;;;;5.07;100.00;101516.22;4892314;29;20745;-74
2024/02/01 10:18:21;;;;;;;0.40;0.40;;;;;;;4.96;100.00;101481.06;4891641;29;20048;-77
2024/02/01 10:20:52;;;;;;;12.25;11.40;;;;;;;4.63;100.00;101405.22;4890691;29;20056;-75
2024/02/01 10:23:21;;;;;;;0.30;0.30;;;;;;;5.12;100.00;101469.56;4868127;29;20044;-72
2024/02/01 10:25:48;;;;;;;5.18;1.50;;;;;;;5.23;100.00;101481.28;4892184;29;20096;-74
2024/02/01 10:28:17;;;;;;;2.35;2.25;;;;;;;4.98;100.00;101424.81;4890611;29;20039;-76
2024/02/01 10:30:43;;;;;;;1.00;0.95;;;;;;;4.89;100.00;101403.63;4889128;29;20115;-75
2024/02/01 10:33:11;;;;;;;1.55;1.45;;;;;;;5.54;100.00;101469.44;4884523;29;20048;-74
2024/02/01 10:35:37;;;;;;;0.60;0.60;;;;;;;5.40;100.00;101462.81;4891677;29;20037;-74
2024/02/01 10:38:12;;;;;;;13.30;12.18;;;;;;;5.57;100.00;101445.22;4891560;29;20414;-73
2024/02/01 10:40:58;;;;;;;4.00;3.70;;;;;;;5.70;100.00;101445.75;4891572;29;20415;-73
2024/02/01 10:43:28;;;;;;;0.52;0.52;;;;;;;5.75;100.00;101437.22;4900638;29;20048;-74
2024/02/01 10:46:06;;;;;;;6.80;6.38;;;;;;;5.75;100.00;101424.19;4885253;29;20037;-75
2024/02/01 10:48:50;;;;;;;17.52;16.55;;;;;;;5.85;100.00;101423.69;4887603;29;20045;-76
2024/02/01 10:51:16;;;;;;;;;;;;;;;6.44;100.00;101413.56;4886823;29;20406;-74
2024/02/01 10:53:43;;;;;;;0.73;0.73;;;;;;;6.76;100.00;101423.31;4881761;29;19972;-75
2024/02/01 10:56:14;;;;;;;1.48;1.38;;;;;;;6.53;100.00;101330.44;4878500;29;20116;-76
2024/02/01 10:58:53;;;;;;;0.40;0.40;;;;;;;6.97;100.00;101383.09;4889003;29;20061;-74
2024/02/01 11:01:20;;;;;;;;;;;;;;;7.29;100.00;101394.47;4891817;29;20036;-73
2024/02/01 11:03:53;;;;;;;0.30;0.30;;;;;;;7.45;100.00;101405.38;4889281;29;19923;-73
2024/02/01 11:06:19;;;;;;;1.67;1.58;;;;;;;7.37;100.00;101325.13;4887788;29;20143;-75
2024/02/01 11:08:52;;;;;;;2.47;2.35;;;;;;;8.11;100.00;101391.50;4891097;29;20048;-74
2024/02/01 11:11:20;;;;;;;5.82;5.28;;;;;;;7.86;100.00;101322.03;4887391;29;20057;-73
2024/02/01 11:14:11;;;;;;;0.65;0.65;;;;;;;8.19;100.00;101374.25;4887204;29;20048;-74
2024/02/01 11:16:48;;;;;;;28.55;7.72;;;;;;;7.90;100.00;101296.00;4891137;29;20112;-74
2024/02/01 11:19:25;;;;;;;3.20;2.38;;;;;;;7.73;100.00;101295.59;4889888;29;20037;-77
2024/02/01 11:21:56;;;;;;;0.55;0.50;;;;;;;8.06;100.00;101364.38;4889315;29;20064;-73
2024/02/01 11:24:26;;;;;;;0.30;0.30;;;;;;;7.89;100.00;101254.16;4887900;29;20088;-74
2024/02/01 11:27:09;;;;;;;1.50;1.40;;;;;;;8.07;100.00;101293.81;4890482;29;20041;-74
2024/02/01 11:29:38;;;;;;;1.00;1.00;;;;;;;8.40;100.00;101332.97;4888264;29;20059;-74
2024/02/01 11:32:05;;;;;;;2.25;2.15;;;;;;;8.38;100.00;101336.38;4889044;29;20085;-74
2024/02/01 11:34:33;;;;;;;0.50;0.50;;;;;;;8.20;100.00;101266.25;4889364;29;20485;-72
2024/02/01 11:36:59;;;;;;;2.80;2.60;;;;;;;8.57;100.00;101337.72;4891726;29;20029;-74
2024/02/01 11:39:26;;;;;;;2.53;2.42;;;;;;;8.57;100.00;101336.00;4873096;29;20466;-74
2024/02/01 11:41:53;;;;;;;0.95;0.95;;;;;;;8.29;98.05;101318.75;4886293;29;20129;-73
2024/02/01 11:44:21;;;;;;;1.00;0.90;;;;;;;7.93;99.75;101246.44;4884974;29;20570;-73
2024/02/01 11:46:51;;;;;;;1.98;1.88;;;;;;;8.63;99.78;101322.19;4888831;29;20143;-75
2024/02/01 11:49:19;;;;;;;4.43;4.15;;;;;;;7.87;100.00;101248.91;4865714;29;20402;-75
2024/02/01 11:52:02;;;;;;;0.68;0.68;;;;;;;8.21;100.00;101309.84;4888356;29;20136;-75
2024/02/01 11:54:29;;;;;;;0.43;0.43;;;;;;;8.20;100.00;101314.19;4882223;29;20159;-73
2024/02/01 11:56:55;;;;;;;5.68;4.63;;;;;;;8.09;100.00;101312.16;4893509;29;20052;-74
2024/02/01 11:59:22;;;;;;;0.40;0.40;;;;;;;7.89;100.00;101301.19;4892038;29;20060;-74
2024/02/01 12:01:48;;;;;;;1.13;1.13;;;;;;;7.96;100.00;101287.44;4887540;29;20105;-73
2024/02/01 12:04:16;;;;;;;1.20;1.10;;;;;;;7.51;100.00;101209.69;4873813;29;20043;-74
2024/02/01 12:06:43;;;;;;;6.60;4.65;;;;;;;7.25;100.00;101222.06;4889098;29;20048;-74
2024/02/01 12:09:14;;;;;;;2.15;2.05;;;;;;;7.54;100.00;101264.63;4890202;29;20500;-75
2024/02/01 12:11:41;;;;;;;6.82;5.15;;;;;;;7.13;100.00;101188.69;4890201;29;20120;-73